createdAt,value
2019-05-26T00:00:45.585Z,0.00
2019-05-26T00:01:45.560Z,0.00
2019-05-26T00:02:45.555Z,0.00
2019-05-26T00:03:45.524Z,0.00
2019-05-26T00:04:45.532Z,0.00
2019-05-26T00:05:45.524Z,0.00
2019-05-26T00:06:45.490Z,0.00
2019-05-26T00:07:45.499Z,0.00
2019-05-26T00:08:45.491Z,0.00
2019-05-26T00:09:45.463Z,0.00
2019-05-26T00:10:45.469Z,0.00
2019-05-26T00:11:45.457Z,0.00
2019-05-26T00:12:45.437Z,0.00
2019-05-26T00:13:45.443Z,0.00
2019-05-26T00:14:45.409Z,0.00
2019-05-26T00:15:45.404Z,0.00
2019-05-26T00:16:45.383Z,0.00
2019-05-26T00:17:45.381Z,0.00
2019-05-26T00:18:45.365Z,0.00
2019-05-26T00:19:45.369Z,0.00
2019-05-26T00:20:45.386Z,0.00
2019-05-26T00:21:45.339Z,0.00
2019-05-26T00:22:45.326Z,0.00
2019-05-26T00:23:45.313Z,0.00
2019-05-26T00:24:45.300Z,0.00
2019-05-26T00:25:45.302Z,0.00
2019-05-26T00:26:45.299Z,0.00
2019-05-26T00:27:45.264Z,0.00
2019-05-26T00:28:45.262Z,0.00
2019-05-26T00:29:45.315Z,0.00
2019-05-26T00:30:45.231Z,0.00
2019-05-26T00:31:45.246Z,0.00
2019-05-26T00:32:45.215Z,0.00
2019-05-26T00:33:45.189Z,0.00
2019-05-26T00:34:45.188Z,0.00
2019-05-26T00:35:45.178Z,0.00
2019-05-26T00:36:45.187Z,0.00
2019-05-26T00:37:49.605Z,0.00
2019-05-26T00:38:46.143Z,0.00
2019-05-26T00:39:45.126Z,0.00
2019-05-26T00:40:45.133Z,0.00
2019-05-26T00:41:45.143Z,0.00
2019-05-26T00:42:45.092Z,0.00
2019-05-26T00:43:45.086Z,0.00
2019-05-26T00:44:45.093Z,0.00
2019-05-26T00:45:45.066Z,0.00
2019-05-26T00:46:45.080Z,0.00
2019-05-26T00:47:45.164Z,0.00
2019-05-26T00:48:45.916Z,0.00
2019-05-26T00:49:45.035Z,0.00
2019-05-26T00:50:45.009Z,0.00
2019-05-26T00:51:45.010Z,0.00
2019-05-26T00:52:45.028Z,0.00
2019-05-26T00:53:44.974Z,0.00
2019-05-26T00:54:44.987Z,0.00
2019-05-26T00:55:44.964Z,0.00
2019-05-26T00:56:44.960Z,0.00
2019-05-26T00:57:44.937Z,0.00
2019-05-26T00:58:44.942Z,0.00
2019-05-26T00:59:44.918Z,0.00
2019-05-26T01:00:44.908Z,0.00
2019-05-26T01:01:44.895Z,0.00
2019-05-26T01:02:44.870Z,0.00
2019-05-26T01:03:44.881Z,0.00
2019-05-26T01:04:44.879Z,0.00
2019-05-26T01:05:44.836Z,0.00
2019-05-26T01:06:44.866Z,0.00
2019-05-26T01:07:44.831Z,0.00
2019-05-26T01:08:44.831Z,0.00
2019-05-26T01:09:44.815Z,0.00
2019-05-26T01:10:44.862Z,0.00
2019-05-26T01:11:44.824Z,0.00
2019-05-26T01:12:44.780Z,0.00
2019-05-26T01:13:44.831Z,0.00
2019-05-26T01:14:44.755Z,0.00
2019-05-26T01:15:44.745Z,0.00
2019-05-26T01:16:44.732Z,0.00
2019-05-26T01:17:44.708Z,0.00
2019-05-26T01:18:44.723Z,0.00
2019-05-26T01:19:44.703Z,0.00
2019-05-26T01:20:44.692Z,0.00
2019-05-26T01:21:44.686Z,0.00
2019-05-26T01:22:44.651Z,0.00
2019-05-26T01:23:44.666Z,0.00
2019-05-26T01:24:44.639Z,0.00
2019-05-26T01:25:44.630Z,0.00
2019-05-26T01:26:44.635Z,0.00
2019-05-26T01:27:44.639Z,0.00
2019-05-26T01:28:44.613Z,0.00
2019-05-26T01:29:44.620Z,0.00
2019-05-26T01:30:44.628Z,0.00
2019-05-26T01:31:44.575Z,0.00
2019-05-26T01:32:44.603Z,0.00
2019-05-26T01:33:44.590Z,0.00
2019-05-26T01:34:44.595Z,0.00
2019-05-26T01:35:44.515Z,0.00
2019-05-26T01:36:44.563Z,0.00
2019-05-26T01:37:44.499Z,0.00
2019-05-26T01:38:44.503Z,0.00
2019-05-26T01:39:44.486Z,0.00
2019-05-26T01:40:44.492Z,0.00
2019-05-26T01:41:44.457Z,0.00
2019-05-26T01:42:44.433Z,0.00
2019-05-26T01:43:44.440Z,0.00
2019-05-26T01:44:44.417Z,0.00
2019-05-26T01:45:44.467Z,0.00
2019-05-26T01:46:44.398Z,0.00
2019-05-26T01:47:44.387Z,0.00
2019-05-26T01:48:44.372Z,0.00
2019-05-26T01:49:44.374Z,0.00
2019-05-26T01:50:44.361Z,0.00
2019-05-26T01:51:44.365Z,0.00
2019-05-26T01:52:44.332Z,0.00
2019-05-26T01:53:44.330Z,0.00
2019-05-26T01:54:44.307Z,0.00
2019-05-26T01:55:44.321Z,0.00
2019-05-26T01:56:44.327Z,0.00
2019-05-26T01:57:44.289Z,0.00
2019-05-26T01:58:44.270Z,0.00
2019-05-26T01:59:44.274Z,0.00
2019-05-26T02:00:44.242Z,0.00
2019-05-26T02:01:44.251Z,0.00
2019-05-26T02:02:44.243Z,0.00
2019-05-26T02:03:44.210Z,0.00
2019-05-26T02:04:44.200Z,0.00
2019-05-26T02:05:44.193Z,0.00
2019-05-26T02:06:44.190Z,0.00
2019-05-26T02:07:44.160Z,0.00
2019-05-26T02:08:44.151Z,0.00
2019-05-26T02:09:44.145Z,0.00
2019-05-26T02:10:44.149Z,0.00
2019-05-26T02:11:44.147Z,0.00
2019-05-26T02:12:44.122Z,0.00
2019-05-26T02:13:44.101Z,4.00
2019-05-26T02:14:44.088Z,4.00
2019-05-26T02:15:44.069Z,4.00
2019-05-26T02:16:44.090Z,0.00
2019-05-26T02:17:44.088Z,4.00
2019-05-26T02:18:44.055Z,4.00
2019-05-26T02:19:44.036Z,4.00
2019-05-26T02:20:44.043Z,4.00
2019-05-26T02:21:44.010Z,4.00
2019-05-26T02:22:44.024Z,8.00
2019-05-26T02:23:43.998Z,4.00
2019-05-26T02:24:44.000Z,8.00
2019-05-26T02:25:43.979Z,8.00
2019-05-26T02:26:43.947Z,12.00
2019-05-26T02:27:43.976Z,12.00
2019-05-26T02:28:43.924Z,12.00
2019-05-26T02:29:43.922Z,12.00
2019-05-26T02:30:43.979Z,16.00
2019-05-26T02:31:43.937Z,16.00
2019-05-26T02:32:43.892Z,16.00
2019-05-26T02:33:43.869Z,20.00
2019-05-26T02:34:43.876Z,24.00
2019-05-26T02:35:43.877Z,28.00
2019-05-26T02:36:43.848Z,32.00
2019-05-26T02:37:43.859Z,36.00
2019-05-26T02:39:01.281Z,36.00
2019-05-26T02:39:44.832Z,40.00
2019-05-26T02:40:43.801Z,44.00
2019-05-26T02:41:43.798Z,52.00
2019-05-26T02:42:43.811Z,60.00
2019-05-26T02:43:43.781Z,64.00
2019-05-26T02:44:43.771Z,76.00
2019-05-26T02:45:43.756Z,84.00
2019-05-26T02:46:43.749Z,92.00
2019-05-26T02:47:43.746Z,100.00
2019-05-26T02:48:43.727Z,112.00
2019-05-26T02:49:43.719Z,120.00
2019-05-26T02:50:43.714Z,128.00
2019-05-26T02:51:43.677Z,136.00
2019-05-26T02:52:43.669Z,148.00
2019-05-26T02:53:43.647Z,156.00
2019-05-26T02:54:43.660Z,164.00
2019-05-26T02:55:43.637Z,176.00
2019-05-26T02:56:43.624Z,184.00
2019-05-26T02:57:43.645Z,196.00
2019-05-26T02:58:43.605Z,208.00
2019-05-26T02:59:43.592Z,220.00
2019-05-26T03:00:43.613Z,232.00
2019-05-26T03:02:01.455Z,248.00
2019-05-26T03:02:44.578Z,260.00
2019-05-26T03:03:43.552Z,280.00
2019-05-26T03:04:43.555Z,292.00
2019-05-26T03:05:43.533Z,312.00
2019-05-26T03:06:43.531Z,328.00
2019-05-26T03:07:43.540Z,344.00
2019-05-26T03:08:43.519Z,368.00
2019-05-26T03:09:43.486Z,392.00
2019-05-26T03:10:43.476Z,424.00
2019-05-26T03:11:43.466Z,448.00
2019-05-26T03:12:43.469Z,480.00
2019-05-26T03:13:43.466Z,508.00
2019-05-26T03:14:43.432Z,536.00
2019-05-26T03:15:43.428Z,568.00
2019-05-26T03:16:43.423Z,600.00
2019-05-26T03:17:43.444Z,628.00
2019-05-26T03:18:43.401Z,660.00
2019-05-26T03:19:43.369Z,692.00
2019-05-26T03:20:43.372Z,728.00
2019-05-26T03:21:43.362Z,764.00
2019-05-26T03:22:43.339Z,804.00
2019-05-26T03:23:43.345Z,848.00
2019-05-26T03:24:43.315Z,896.00
2019-05-26T03:25:43.306Z,952.00
2019-05-26T03:26:43.303Z,1012.00
2019-05-26T03:27:43.304Z,1068.00
2019-05-26T03:28:43.319Z,1124.00
2019-05-26T03:29:43.335Z,1184.00
2019-05-26T03:30:43.247Z,1240.00
2019-05-26T03:31:43.255Z,1292.00
2019-05-26T03:32:43.309Z,1332.00
2019-05-26T03:33:43.232Z,1356.00
2019-05-26T03:34:43.215Z,1368.00
2019-05-26T03:35:43.195Z,1380.00
2019-05-26T03:36:43.180Z,1400.00
2019-05-26T03:37:43.177Z,1428.00
2019-05-26T03:38:43.174Z,1476.00
2019-05-26T03:39:46.025Z,1532.00
2019-05-26T03:40:43.155Z,1592.00
2019-05-26T03:41:43.130Z,1652.00
2019-05-26T03:42:43.113Z,1724.00
2019-05-26T03:43:43.104Z,1796.00
2019-05-26T03:44:43.112Z,1876.00
2019-05-26T03:45:43.088Z,1968.00
2019-05-26T03:46:43.089Z,2080.00
2019-05-26T03:47:43.087Z,2192.00
2019-05-26T03:48:43.062Z,2292.00
2019-05-26T03:49:43.059Z,2368.00
2019-05-26T03:50:43.035Z,2428.00
2019-05-26T03:51:43.016Z,2468.00
2019-05-26T03:52:43.022Z,2504.00
2019-05-26T03:53:42.999Z,2544.00
2019-05-26T03:54:43.009Z,2584.00
2019-05-26T03:55:42.991Z,2616.00
2019-05-26T03:56:42.978Z,2652.00
2019-05-26T03:57:42.957Z,2688.00
2019-05-26T03:58:42.958Z,2736.00
2019-05-26T03:59:42.974Z,2792.00
2019-05-26T04:00:42.951Z,2856.00
2019-05-26T04:01:42.919Z,2924.00
2019-05-26T04:02:42.907Z,3000.00
2019-05-26T04:03:42.908Z,3084.00
2019-05-26T04:04:42.881Z,3148.00
2019-05-26T04:05:42.892Z,3204.00
2019-05-26T04:06:42.858Z,3252.00
2019-05-26T04:07:42.982Z,3312.00
2019-05-26T04:08:42.829Z,3380.00
2019-05-26T04:10:02.606Z,3456.00
2019-05-26T04:10:43.827Z,3540.00
2019-05-26T04:11:42.808Z,3612.00
2019-05-26T04:12:42.793Z,3668.00
2019-05-26T04:13:42.796Z,3708.00
2019-05-26T04:14:42.791Z,3736.00
2019-05-26T04:15:42.774Z,3792.00
2019-05-26T04:16:42.734Z,3844.00
2019-05-26T04:17:42.750Z,3908.00
2019-05-26T04:18:42.758Z,3972.00
2019-05-26T04:19:42.733Z,4016.00
2019-05-26T04:20:45.715Z,4076.00
2019-05-26T04:21:42.703Z,4164.00
2019-05-26T04:22:42.678Z,4244.00
2019-05-26T04:23:42.693Z,4296.00
2019-05-26T04:24:42.673Z,4408.00
2019-05-26T04:25:42.666Z,4492.00
2019-05-26T04:26:42.662Z,4568.00
2019-05-26T04:27:42.615Z,3908.00
2019-05-26T04:28:42.617Z,4804.00
2019-05-26T04:29:42.597Z,4908.00
2019-05-26T04:30:42.598Z,4992.00
2019-05-26T04:31:42.624Z,5120.00
2019-05-26T04:32:42.587Z,5216.00
2019-05-26T04:33:42.561Z,5300.00
2019-05-26T04:34:42.556Z,5364.00
2019-05-26T04:35:42.530Z,5416.00
2019-05-26T04:36:42.546Z,5444.00
2019-05-26T04:37:42.515Z,5440.00
2019-05-26T04:38:42.525Z,5448.00
2019-05-26T04:39:42.496Z,5444.00
2019-05-26T04:40:42.486Z,5440.00
2019-05-26T04:41:42.477Z,5508.00
2019-05-26T04:42:42.480Z,5588.00
2019-05-26T04:43:42.477Z,5700.00
2019-05-26T04:44:42.452Z,5776.00
2019-05-26T04:45:42.427Z,5760.00
2019-05-26T04:46:42.431Z,5772.00
2019-05-26T04:47:42.413Z,5828.00
2019-05-26T04:48:42.385Z,5868.00
2019-05-26T04:49:42.390Z,5908.00
2019-05-26T04:50:42.379Z,6000.00
2019-05-26T04:51:42.364Z,6072.00
2019-05-26T04:52:42.394Z,6128.00
2019-05-26T04:53:43.338Z,6184.00
2019-05-26T04:54:42.323Z,6264.00
2019-05-26T04:55:42.321Z,6420.00
2019-05-26T04:56:42.333Z,6700.00
2019-05-26T04:57:42.349Z,7236.00
2019-05-26T04:58:42.272Z,7724.00
2019-05-26T04:59:42.266Z,8212.00
2019-05-26T05:00:42.255Z,8836.00
2019-05-26T05:01:42.262Z,9844.00
2019-05-26T05:02:42.256Z,10400.00
2019-05-26T05:03:42.238Z,10356.00
2019-05-26T05:04:42.227Z,10696.00
2019-05-26T05:05:42.225Z,10664.00
2019-05-26T05:06:42.193Z,9916.00
2019-05-26T05:07:42.201Z,9520.00
2019-05-26T05:08:42.180Z,9624.00
2019-05-26T05:09:42.169Z,9836.00
2019-05-26T05:10:43.007Z,9872.00
2019-05-26T05:11:42.157Z,10760.00
2019-05-26T05:12:42.135Z,10948.00
2019-05-26T05:13:42.136Z,11052.00
2019-05-26T05:14:42.099Z,10124.00
2019-05-26T05:15:42.098Z,8996.00
2019-05-26T05:16:42.085Z,8976.00
2019-05-26T05:17:42.076Z,8692.00
2019-05-26T05:18:42.073Z,8800.00
2019-05-26T05:19:42.045Z,9412.00
2019-05-26T05:20:42.034Z,9408.00
2019-05-26T05:21:42.017Z,9552.00
2019-05-26T05:22:42.050Z,10508.00
2019-05-26T05:23:42.020Z,10204.00
2019-05-26T05:24:41.992Z,11212.00
2019-05-26T05:25:41.982Z,12312.00
2019-05-26T05:26:41.969Z,13684.00
2019-05-26T05:27:41.972Z,14880.00
2019-05-26T05:28:41.967Z,15328.00
2019-05-26T05:29:41.946Z,15712.00
2019-05-26T05:30:41.924Z,14984.00
2019-05-26T05:31:41.901Z,14436.00
2019-05-26T05:32:41.896Z,14284.00
2019-05-26T05:33:41.899Z,14040.00
2019-05-26T05:34:41.915Z,14192.00
2019-05-26T05:35:41.877Z,14460.00
2019-05-26T05:36:41.855Z,14728.00
2019-05-26T05:37:41.855Z,14912.00
2019-05-26T05:38:41.866Z,15652.00
2019-05-26T05:39:41.827Z,16064.00
2019-05-26T05:40:58.000Z,14648.00
2019-05-26T05:41:42.794Z,14480.00
2019-05-26T05:42:41.829Z,14020.00
2019-05-26T05:43:41.802Z,13896.00
2019-05-26T05:44:41.768Z,14160.00
2019-05-26T05:45:41.779Z,14148.00
2019-05-26T05:46:41.750Z,14884.00
2019-05-26T05:47:41.750Z,14976.00
2019-05-26T05:48:41.758Z,15296.00
2019-05-26T05:49:41.740Z,15152.00
2019-05-26T05:50:41.696Z,15572.00
2019-05-26T05:51:41.706Z,15744.00
2019-05-26T05:52:41.680Z,16256.00
2019-05-26T05:53:41.695Z,16288.00
2019-05-26T05:54:41.661Z,16768.00
2019-05-26T05:55:41.645Z,16992.00
2019-05-26T05:56:41.635Z,17024.00
2019-05-26T05:57:41.626Z,16896.00
2019-05-26T05:58:41.625Z,16608.00
2019-05-26T05:59:41.623Z,16544.00
2019-05-26T06:00:41.645Z,17120.00
2019-05-26T06:01:41.611Z,17568.00
2019-05-26T06:02:41.577Z,17824.00
2019-05-26T06:03:41.585Z,18048.00
2019-05-26T06:04:41.567Z,17888.00
2019-05-26T06:05:41.534Z,17984.00
2019-05-26T06:06:41.528Z,18592.00
2019-05-26T06:07:41.523Z,24288.00
2019-05-26T06:08:41.536Z,32704.00
2019-05-26T06:09:41.496Z,31968.00
2019-05-26T06:10:41.470Z,28000.00
2019-05-26T06:11:41.461Z,23136.00
2019-05-26T06:12:41.468Z,27520.00
2019-05-26T06:13:41.449Z,29280.00
2019-05-26T06:14:41.482Z,28480.00
2019-05-26T06:15:41.426Z,31168.00
2019-05-26T06:16:41.408Z,31680.00
2019-05-26T06:17:41.395Z,31520.00
2019-05-26T06:18:41.419Z,32192.00
2019-05-26T06:19:41.398Z,32128.00
2019-05-26T06:20:41.374Z,32992.00
2019-05-26T06:21:41.363Z,31552.00
2019-05-26T06:22:41.341Z,31424.00
2019-05-26T06:23:41.335Z,30464.00
2019-05-26T06:24:41.339Z,30912.00
2019-05-26T06:25:41.324Z,31008.00
2019-05-26T06:26:41.307Z,32512.00
2019-05-26T06:27:41.300Z,32064.00
2019-05-26T06:28:41.287Z,32416.00
2019-05-26T06:29:57.587Z,33312.00
2019-05-26T06:30:42.253Z,34976.00
2019-05-26T06:31:41.251Z,30784.00
2019-05-26T06:32:41.246Z,31264.00
2019-05-26T06:33:41.224Z,30560.00
2019-05-26T06:34:41.217Z,36288.00
2019-05-26T06:35:41.259Z,38560.00
2019-05-26T06:36:41.192Z,40416.00
2019-05-26T06:37:41.188Z,43424.00
2019-05-26T06:38:41.175Z,43456.00
2019-05-26T06:39:41.181Z,46528.00
2019-05-26T06:40:41.152Z,44800.00
2019-05-26T06:41:41.149Z,44160.00
2019-05-26T06:42:41.129Z,46848.00
2019-05-26T06:43:41.131Z,48096.00
2019-05-26T06:44:52.936Z,37248.00
2019-05-26T06:45:42.098Z,40320.00
2019-05-26T06:46:41.084Z,49056.00
2019-05-26T06:47:41.078Z,43840.00
2019-05-26T06:48:41.067Z,44064.00
2019-05-26T06:49:41.061Z,46560.00
2019-05-26T06:50:41.072Z,46272.00
2019-05-26T06:51:41.046Z,50496.00
2019-05-26T06:52:41.029Z,49600.00
2019-05-26T06:53:41.020Z,48800.00
2019-05-26T06:54:41.007Z,51232.00
2019-05-26T06:55:41.008Z,52800.00
2019-05-26T06:56:40.985Z,51744.00
2019-05-26T06:57:40.958Z,31424.00
2019-05-26T06:58:40.967Z,37472.00
2019-05-26T06:59:40.978Z,28480.00
2019-05-26T07:00:40.948Z,34304.00
2019-05-26T07:01:40.929Z,26976.00
2019-05-26T07:02:40.933Z,31360.00
2019-05-26T07:03:40.902Z,29184.00
2019-05-26T07:04:40.903Z,30144.00
2019-05-26T07:05:40.883Z,29952.00
2019-05-26T07:06:40.878Z,54016.00
2019-05-26T07:07:40.853Z,56288.00
2019-05-26T07:08:40.860Z,62240.00
2019-05-26T07:09:40.869Z,60448.00
2019-05-26T07:10:40.841Z,60288.00
2019-05-26T07:11:51.718Z,60544.00
2019-05-26T07:12:41.813Z,51104.00
2019-05-26T07:13:40.793Z,51392.00
2019-05-26T07:14:40.800Z,52480.00
2019-05-26T07:15:40.762Z,44320.00
2019-05-26T07:16:40.750Z,56320.00
2019-05-26T07:17:40.751Z,52576.00
2019-05-26T07:18:40.749Z,55072.00
2019-05-26T07:19:40.740Z,50048.00
2019-05-26T07:20:40.712Z,50272.00
2019-05-26T07:21:40.706Z,44928.00
2019-05-26T07:22:40.702Z,50432.00
2019-05-26T07:23:40.696Z,55104.00
2019-05-26T07:24:40.708Z,53056.00
2019-05-26T07:25:40.670Z,49216.00
2019-05-26T07:26:40.652Z,49920.00
2019-05-26T07:27:40.640Z,55264.00
2019-05-26T07:28:40.629Z,51456.00
2019-05-26T07:29:40.633Z,47744.00
2019-05-26T07:30:40.614Z,39104.00
2019-05-26T07:31:40.616Z,41344.00
2019-05-26T07:32:40.619Z,39936.00
2019-05-26T07:33:40.586Z,42336.00
2019-05-26T07:34:40.591Z,47136.00
2019-05-26T07:35:40.569Z,44032.00
2019-05-26T07:36:40.549Z,38080.00
2019-05-26T07:37:40.549Z,43264.00
2019-05-26T07:38:40.522Z,49280.00
2019-05-26T07:39:40.529Z,47840.00
2019-05-26T07:40:40.504Z,47968.00
2019-05-26T07:41:40.511Z,46976.00
2019-05-26T07:42:40.499Z,44640.00
2019-05-26T07:43:40.486Z,43520.00
2019-05-26T07:44:40.495Z,45056.00
2019-05-26T07:45:40.474Z,46208.00
2019-05-26T07:46:40.442Z,46784.00
2019-05-26T07:47:40.446Z,43552.00
2019-05-26T07:48:40.426Z,43552.00
2019-05-26T07:49:40.434Z,41088.00
2019-05-26T07:50:40.415Z,41184.00
2019-05-26T07:51:40.398Z,40352.00
2019-05-26T07:52:40.381Z,40672.00
2019-05-26T07:53:40.368Z,41120.00
2019-05-26T07:54:40.372Z,41984.00
2019-05-26T07:55:40.375Z,42144.00
2019-05-26T07:56:40.379Z,40704.00
2019-05-26T07:57:40.334Z,39264.00
2019-05-26T07:58:40.323Z,39072.00
2019-05-26T07:59:40.313Z,39648.00
2019-05-26T08:00:40.316Z,39104.00
2019-05-26T08:01:40.310Z,40480.00
2019-05-26T08:02:40.281Z,41312.00
2019-05-26T08:03:40.270Z,43072.00
2019-05-26T08:04:40.267Z,43008.00
2019-05-26T08:05:40.268Z,41952.00
2019-05-26T08:06:40.241Z,37984.00
2019-05-26T08:07:40.225Z,35968.00
2019-05-26T08:08:40.237Z,28224.00
2019-05-26T08:09:40.212Z,30912.00
2019-05-26T08:10:40.220Z,35296.00
2019-05-26T08:11:40.195Z,27008.00
2019-05-26T08:12:40.176Z,24736.00
2019-05-26T08:13:40.175Z,23232.00
2019-05-26T08:14:40.164Z,22464.00
2019-05-26T08:15:40.179Z,22912.00
2019-05-26T08:16:40.151Z,23968.00
2019-05-26T08:17:40.131Z,29024.00
2019-05-26T08:18:40.149Z,41536.00
2019-05-26T08:19:40.139Z,42720.00
2019-05-26T08:20:40.153Z,44608.00
2019-05-26T08:21:40.133Z,38112.00
2019-05-26T08:22:40.091Z,38400.00
2019-05-26T08:23:40.073Z,38144.00
2019-05-26T08:24:40.052Z,23520.00
2019-05-26T08:25:40.023Z,23872.00
2019-05-26T08:26:40.033Z,28448.00
2019-05-26T08:27:40.015Z,39040.00
2019-05-26T08:28:40.006Z,34464.00
2019-05-26T08:29:40.001Z,36320.00
2019-05-26T08:30:39.984Z,42176.00
2019-05-26T08:31:40.005Z,41952.00
2019-05-26T08:32:39.954Z,43680.00
2019-05-26T08:33:39.943Z,31648.00
2019-05-26T08:34:39.943Z,31392.00
2019-05-26T08:35:39.926Z,30464.00
2019-05-26T08:36:39.935Z,28960.00
2019-05-26T08:37:39.919Z,31424.00
2019-05-26T08:38:39.907Z,38528.00
2019-05-26T08:39:39.886Z,44928.00
2019-05-26T08:40:39.918Z,40320.00
2019-05-26T08:41:39.871Z,28608.00
2019-05-26T08:42:44.432Z,34016.00
2019-05-26T08:43:40.829Z,34656.00
2019-05-26T08:44:39.815Z,30240.00
2019-05-26T08:45:39.809Z,28448.00
2019-05-26T08:46:39.816Z,41792.00
2019-05-26T08:47:39.821Z,51296.00
2019-05-26T08:48:39.794Z,54304.00
2019-05-26T08:49:39.788Z,48928.00
2019-05-26T08:50:39.768Z,32576.00
2019-05-26T08:51:39.756Z,55392.00
2019-05-26T08:52:39.802Z,51136.00
2019-05-26T08:53:39.729Z,50080.00
2019-05-26T08:54:39.728Z,62720.00
2019-05-26T08:55:39.746Z,62240.00
2019-05-26T08:56:39.697Z,52224.00
2019-05-26T08:57:39.694Z,58464.00
2019-05-26T08:58:39.704Z,60480.00
2019-05-26T08:59:39.686Z,60288.00
2019-05-26T09:00:39.664Z,61952.00
2019-05-26T09:01:39.655Z,66848.00
2019-05-26T09:02:39.649Z,66528.00
2019-05-26T09:03:39.619Z,67776.00
2019-05-26T09:04:39.639Z,70528.00
2019-05-26T09:05:39.621Z,70144.00
2019-05-26T09:06:39.586Z,68992.00
2019-05-26T09:07:39.580Z,72064.00
2019-05-26T09:08:39.588Z,67424.00
2019-05-26T09:09:39.574Z,65568.00
2019-05-26T09:10:39.555Z,67552.00
2019-05-26T09:11:39.562Z,70176.00
2019-05-26T09:12:39.528Z,75456.00
2019-05-26T09:13:39.546Z,75136.00
2019-05-26T09:14:39.544Z,77888.00
2019-05-26T09:15:39.513Z,82176.00
2019-05-26T09:16:39.504Z,85888.00
2019-05-26T09:17:39.485Z,84736.00
2019-05-26T09:18:39.490Z,84512.00
2019-05-26T09:19:39.462Z,83680.00
2019-05-26T09:20:39.455Z,80768.00
2019-05-26T09:21:39.457Z,81152.00
2019-05-26T09:22:39.461Z,80000.00
2019-05-26T09:23:39.422Z,81024.00
2019-05-26T09:24:39.438Z,79296.00
2019-05-26T09:25:39.406Z,78816.00
2019-05-26T09:26:39.393Z,73664.00
2019-05-26T09:27:39.382Z,80704.00
2019-05-26T09:28:39.390Z,75648.00
2019-05-26T09:29:39.384Z,53152.00
2019-05-26T09:30:39.354Z,35616.00
2019-05-26T09:31:39.338Z,31360.00
2019-05-26T09:32:39.337Z,27392.00
2019-05-26T09:33:39.319Z,31712.00
2019-05-26T09:34:39.334Z,68416.00
2019-05-26T09:35:39.303Z,33184.00
2019-05-26T09:36:39.324Z,29760.00
2019-05-26T09:37:39.284Z,41792.00
2019-05-26T09:38:39.274Z,53472.00
2019-05-26T09:39:39.278Z,30112.00
2019-05-26T09:40:39.262Z,41408.00
2019-05-26T09:41:39.235Z,26560.00
2019-05-26T09:42:39.228Z,62688.00
2019-05-26T09:43:39.224Z,28128.00
2019-05-26T09:44:39.200Z,29312.00
2019-05-26T09:45:39.234Z,50304.00
2019-05-26T09:46:39.202Z,52000.00
2019-05-26T09:47:39.204Z,25504.00
2019-05-26T09:48:39.187Z,30208.00
2019-05-26T09:49:39.164Z,66144.00
2019-05-26T09:50:39.157Z,41408.00
2019-05-26T09:51:39.173Z,22464.00
2019-05-26T09:52:39.124Z,25760.00
2019-05-26T09:53:39.117Z,27872.00
2019-05-26T09:54:39.111Z,69056.00
2019-05-26T09:55:39.104Z,75968.00
2019-05-26T09:56:39.107Z,76032.00
2019-05-26T09:57:39.074Z,80256.00
2019-05-26T09:58:39.057Z,79008.00
2019-05-26T09:59:39.053Z,71520.00
2019-05-26T10:00:39.041Z,76544.00
2019-05-26T10:01:39.057Z,43008.00
2019-05-26T10:02:39.026Z,40096.00
2019-05-26T10:03:38.999Z,80320.00
2019-05-26T10:04:39.001Z,37088.00
2019-05-26T10:05:38.985Z,76768.00
2019-05-26T10:06:39.007Z,66048.00
2019-05-26T10:07:38.982Z,70336.00
2019-05-26T10:08:38.966Z,71648.00
2019-05-26T10:09:38.964Z,67552.00
2019-05-26T10:10:38.930Z,67136.00
2019-05-26T10:11:38.954Z,52480.00
2019-05-26T10:12:38.916Z,69120.00
2019-05-26T10:13:38.901Z,76256.00
2019-05-26T10:14:38.898Z,76992.00
2019-05-26T10:15:38.894Z,74400.00
2019-05-26T10:16:38.882Z,28128.00
2019-05-26T10:17:38.868Z,28960.00
2019-05-26T10:18:38.916Z,72032.00
2019-05-26T10:19:38.856Z,72480.00
2019-05-26T10:20:38.847Z,63200.00
2019-05-26T10:21:38.849Z,57888.00
2019-05-26T10:22:38.813Z,37600.00
2019-05-26T10:23:38.804Z,60928.00
2019-05-26T10:24:38.787Z,60640.00
2019-05-26T10:25:38.785Z,59968.00
2019-05-26T10:26:38.814Z,60960.00
2019-05-26T10:27:38.768Z,66112.00
2019-05-26T10:28:38.757Z,63744.00
2019-05-26T10:29:38.738Z,61792.00
2019-05-26T10:30:38.721Z,62016.00
2019-05-26T10:31:38.741Z,46336.00
2019-05-26T10:32:38.726Z,36640.00
2019-05-26T10:33:38.702Z,31584.00
2019-05-26T10:34:38.693Z,26080.00
2019-05-26T10:35:38.734Z,25952.00
2019-05-26T10:36:38.740Z,43520.00
2019-05-26T10:37:38.661Z,34496.00
2019-05-26T10:38:38.664Z,36384.00
2019-05-26T10:39:38.648Z,40416.00
2019-05-26T10:40:38.646Z,28160.00
2019-05-26T10:41:38.667Z,50272.00
2019-05-26T10:42:38.606Z,44096.00
2019-05-26T10:43:46.989Z,63392.00
2019-05-26T10:44:39.582Z,62304.00
2019-05-26T10:45:38.568Z,53056.00
2019-05-26T10:46:38.595Z,38080.00
2019-05-26T10:47:38.574Z,34528.00
2019-05-26T10:48:38.547Z,36448.00
2019-05-26T10:49:38.597Z,41184.00
2019-05-26T10:50:38.531Z,54016.00
2019-05-26T10:51:38.530Z,65952.00
2019-05-26T10:52:38.522Z,69696.00
2019-05-26T10:53:38.499Z,69120.00
2019-05-26T10:54:38.482Z,76160.00
2019-05-26T10:55:38.470Z,53632.00
2019-05-26T10:56:38.471Z,47072.00
2019-05-26T10:57:38.452Z,80160.00
2019-05-26T10:58:38.462Z,50880.00
2019-05-26T10:59:38.435Z,52128.00
2019-05-26T11:00:38.449Z,55776.00
2019-05-26T11:01:38.437Z,42144.00
2019-05-26T11:02:38.411Z,53664.00
2019-05-26T11:03:38.384Z,38624.00
2019-05-26T11:04:38.388Z,42464.00
2019-05-26T11:05:38.374Z,51328.00
2019-05-26T11:06:38.394Z,45696.00
2019-05-26T11:07:38.353Z,42272.00
2019-05-26T11:08:38.343Z,41792.00
2019-05-26T11:09:38.326Z,45632.00
2019-05-26T11:10:38.342Z,34912.00
2019-05-26T11:11:38.338Z,29856.00
2019-05-26T11:12:38.311Z,28640.00
2019-05-26T11:13:40.701Z,25568.00
2019-05-26T11:14:38.283Z,23744.00
2019-05-26T11:15:38.262Z,31296.00
2019-05-26T11:16:38.270Z,43904.00
2019-05-26T11:17:38.253Z,39904.00
2019-05-26T11:18:38.246Z,47552.00
2019-05-26T11:19:38.232Z,72576.00
2019-05-26T11:20:38.227Z,60864.00
2019-05-26T11:21:38.227Z,55232.00
2019-05-26T11:22:38.212Z,41856.00
2019-05-26T11:23:38.203Z,36800.00
2019-05-26T11:24:38.203Z,32736.00
2019-05-26T11:25:38.166Z,30432.00
2019-05-26T11:26:38.187Z,28352.00
2019-05-26T11:27:38.160Z,28320.00
2019-05-26T11:28:38.157Z,29312.00
2019-05-26T11:29:38.141Z,30464.00
2019-05-26T11:30:38.129Z,32128.00
2019-05-26T11:31:38.111Z,33920.00
2019-05-26T11:32:38.106Z,34560.00
2019-05-26T11:33:38.078Z,38336.00
2019-05-26T11:34:38.075Z,42816.00
2019-05-26T11:35:38.065Z,55712.00
2019-05-26T11:36:38.063Z,50144.00
2019-05-26T11:37:38.072Z,49408.00
2019-05-26T11:38:38.021Z,57120.00
2019-05-26T11:39:38.011Z,62880.00
2019-05-26T11:40:38.012Z,54944.00
2019-05-26T11:41:37.989Z,74080.00
2019-05-26T11:42:38.013Z,56864.00
2019-05-26T11:43:37.975Z,57856.00
2019-05-26T11:44:37.969Z,54080.00
2019-05-26T11:45:37.954Z,45664.00
2019-05-26T11:46:37.945Z,59520.00
2019-05-26T11:47:37.951Z,59424.00
2019-05-26T11:48:39.268Z,63840.00
2019-05-26T11:49:37.912Z,64160.00
2019-05-26T11:50:37.909Z,106432.00
2019-05-26T11:51:37.912Z,70848.00
2019-05-26T11:52:37.894Z,63392.00
2019-05-26T11:53:37.897Z,49760.00
2019-05-26T11:54:37.860Z,69120.00
2019-05-26T11:55:37.853Z,66880.00
2019-05-26T11:56:37.853Z,48512.00
2019-05-26T11:57:37.927Z,37024.00
2019-05-26T11:58:37.827Z,31296.00
2019-05-26T11:59:37.819Z,29184.00
2019-05-26T12:00:37.795Z,27680.00
2019-05-26T12:01:37.796Z,27584.00
2019-05-26T12:02:37.800Z,29120.00
2019-05-26T12:03:37.770Z,29760.00
2019-05-26T12:04:37.772Z,31616.00
2019-05-26T12:05:37.751Z,32192.00
2019-05-26T12:06:37.731Z,32416.00
2019-05-26T12:07:37.726Z,33248.00
2019-05-26T12:08:37.742Z,33856.00